createdAt,value
2023-03-26T00:01:30.775Z,80027.00
2023-03-26T00:03:12.107Z,80026.69
2023-03-26T00:04:53.381Z,80021.09
2023-03-26T00:06:34.726Z,80020.94
2023-03-26T00:08:16.024Z,80019.91
2023-03-26T00:09:57.305Z,80020.88
2023-03-26T00:11:38.585Z,80030.50
2023-03-26T00:13:19.883Z,80017.78
2023-03-26T00:15:01.186Z,80012.47
2023-03-26T00:16:42.651Z,79998.00
2023-03-26T00:18:24.053Z,79992.03
2023-03-26T00:20:05.318Z,79984.28
2023-03-26T00:21:46.617Z,79991.44
2023-03-26T00:23:27.998Z,79998.47
2023-03-26T00:25:09.271Z,79988.53
2023-03-26T00:26:50.631Z,79983.50
2023-03-26T00:28:31.938Z,79981.91
2023-03-26T00:30:13.243Z,79973.81
2023-03-26T00:31:54.525Z,79972.75
2023-03-26T00:33:35.793Z,79957.88
2023-03-26T00:35:17.087Z,79950.75
2023-03-26T00:36:58.346Z,79958.66
2023-03-26T00:38:39.653Z,79945.69
2023-03-26T00:40:20.945Z,79930.50
2023-03-26T00:42:02.216Z,79938.16
2023-03-26T00:43:43.495Z,79948.28
2023-03-26T00:45:24.823Z,79947.63
2023-03-26T00:47:06.128Z,79952.19
2023-03-26T00:48:47.454Z,79939.94
2023-03-26T00:50:28.740Z,79949.19
2023-03-26T00:52:10.018Z,79957.66
2023-03-26T00:53:51.322Z,79959.78
2023-03-26T00:55:32.607Z,79955.97
2023-03-26T00:57:20.207Z,79958.59
2023-03-26T00:59:07.089Z,79954.69
2023-03-26T01:00:48.405Z,79967.19
2023-03-26T01:02:29.774Z,79964.13
2023-03-26T01:04:11.274Z,79957.50
2023-03-26T01:05:52.988Z,79958.09
2023-03-26T01:07:34.635Z,79968.84
2023-03-26T01:09:16.013Z,79977.88
2023-03-26T01:10:57.405Z,79983.44
2023-03-26T01:12:38.705Z,79983.91
2023-03-26T01:14:19.967Z,79990.28
2023-03-26T01:16:01.386Z,79999.00
2023-03-26T01:17:42.757Z,79992.72
2023-03-26T01:19:24.085Z,79991.59
2023-03-26T01:21:05.424Z,79997.50
2023-03-26T01:22:46.753Z,80017.97
2023-03-26T01:24:28.322Z,80015.28
2023-03-26T01:26:09.613Z,79998.66
2023-03-26T01:27:50.905Z,80009.88
2023-03-26T01:29:32.180Z,80026.88
2023-03-26T01:31:13.454Z,80034.81
2023-03-26T01:32:54.801Z,80024.72
2023-03-26T01:34:36.145Z,80031.25
2023-03-26T01:36:17.409Z,80040.47
2023-03-26T01:37:58.869Z,80018.44
2023-03-26T01:39:40.273Z,80031.25
2023-03-26T01:41:21.565Z,80028.34
2023-03-26T01:43:02.839Z,80025.31
2023-03-26T01:44:44.167Z,80031.09
2023-03-26T01:46:25.546Z,80022.75
2023-03-26T01:48:06.958Z,80021.44
2023-03-26T01:49:48.281Z,80013.69
2023-03-26T01:51:29.645Z,80021.31
2023-03-26T01:53:10.940Z,80016.53
2023-03-26T01:54:52.258Z,80010.53
2023-03-26T01:56:33.565Z,80002.94
2023-03-26T01:58:14.846Z,80011.88
2023-03-26T01:59:56.160Z,80006.34
2023-03-26T02:01:37.624Z,80001.63
2023-03-26T02:03:19.287Z,79997.53
2023-03-26T02:05:00.669Z,79993.88
2023-03-26T02:06:41.976Z,79985.59
2023-03-26T02:08:23.494Z,79967.50
2023-03-26T02:10:04.867Z,79965.97
2023-03-26T02:11:46.157Z,79973.81
2023-03-26T02:13:27.508Z,79962.97
2023-03-26T02:15:08.806Z,79957.88
2023-03-26T02:16:50.094Z,79941.16
2023-03-26T02:18:31.392Z,79937.44
2023-03-26T02:20:12.667Z,79929.25
2023-03-26T02:21:53.936Z,79927.75
2023-03-26T02:23:35.247Z,79923.47
2023-03-26T02:25:16.548Z,79914.50
2023-03-26T02:26:57.809Z,79909.78
2023-03-26T02:28:39.109Z,79912.19
2023-03-26T02:30:20.368Z,79908.50
2023-03-26T02:32:01.686Z,79897.03
2023-03-26T02:33:43.068Z,79886.31
2023-03-26T02:35:24.397Z,79891.06
2023-03-26T02:37:05.721Z,79904.75
2023-03-26T02:38:47.042Z,79912.09
2023-03-26T02:40:28.315Z,79911.78
2023-03-26T02:42:09.594Z,79912.06
2023-03-26T02:43:50.913Z,79895.69
2023-03-26T02:45:32.249Z,79899.78
2023-03-26T02:47:13.610Z,79904.34
2023-03-26T02:48:54.917Z,79886.41
2023-03-26T02:50:36.204Z,79891.50
2023-03-26T02:52:17.494Z,79876.69
2023-03-26T02:53:58.781Z,79870.38
2023-03-26T02:55:40.089Z,79879.28
2023-03-26T02:57:21.405Z,79891.06
2023-03-26T02:59:02.683Z,79900.63
2023-03-26T03:00:43.986Z,79894.53
2023-03-26T03:02:25.403Z,79910.63
2023-03-26T03:04:06.732Z,79910.25
2023-03-26T03:05:48.033Z,79898.13
2023-03-26T03:07:29.374Z,79884.28
2023-03-26T03:09:10.675Z,79896.78
2023-03-26T03:10:51.969Z,79894.88
2023-03-26T03:12:33.273Z,79891.19
2023-03-26T03:14:14.581Z,79889.81
2023-03-26T03:15:56.090Z,79891.97
2023-03-26T03:17:37.602Z,79884.06
2023-03-26T03:19:18.983Z,79883.69
2023-03-26T03:21:00.298Z,79894.19
2023-03-26T03:22:41.588Z,79902.22
2023-03-26T03:24:22.867Z,79902.56
2023-03-26T03:26:04.168Z,79905.19
2023-03-26T03:27:45.474Z,79899.19
2023-03-26T03:29:26.751Z,79909.41
2023-03-26T03:31:08.124Z,79896.56
2023-03-26T03:32:49.471Z,79886.00
2023-03-26T03:34:30.783Z,79892.81
2023-03-26T03:36:20.560Z,79899.75
2023-03-26T03:38:02.403Z,79907.28
2023-03-26T03:39:43.697Z,79892.03
2023-03-26T03:41:25.035Z,79884.94
2023-03-26T03:43:06.338Z,79880.19
2023-03-26T03:44:47.668Z,79872.19
2023-03-26T03:46:29.015Z,79880.81
2023-03-26T03:48:10.381Z,79868.34
2023-03-26T03:49:51.696Z,79838.97
2023-03-26T03:51:32.990Z,79826.75
2023-03-26T03:53:14.284Z,79838.50
2023-03-26T03:54:55.580Z,79837.69
2023-03-26T03:56:36.919Z,79829.19
2023-03-26T03:58:18.235Z,79827.84
2023-03-26T03:59:59.509Z,79822.16
2023-03-26T04:01:40.852Z,79807.84
2023-03-26T04:03:33.176Z,79800.69
2023-03-26T04:05:15.762Z,79800.09
2023-03-26T04:06:57.085Z,79806.13
2023-03-26T04:08:38.393Z,79793.78
2023-03-26T04:10:19.725Z,79803.31
2023-03-26T04:12:01.064Z,79800.19
2023-03-26T04:13:42.380Z,79782.03
2023-03-26T04:15:23.688Z,79782.53
2023-03-26T04:17:05.005Z,79783.00
2023-03-26T04:18:46.288Z,79774.38
2023-03-26T04:20:27.574Z,79772.03
2023-03-26T04:22:08.854Z,79785.50
2023-03-26T04:23:50.143Z,79800.91
2023-03-26T04:25:31.427Z,79814.75
2023-03-26T04:27:12.721Z,79774.63
2023-03-26T04:28:54.030Z,79790.78
2023-03-26T04:30:35.285Z,79786.50
2023-03-26T04:32:16.657Z,79778.97
2023-03-26T04:33:57.966Z,79772.25
2023-03-26T04:35:39.289Z,79756.25
2023-03-26T04:37:20.631Z,79729.91
2023-03-26T04:39:02.054Z,79753.16
2023-03-26T04:40:43.336Z,79760.53
2023-03-26T04:42:24.616Z,79756.41
2023-03-26T04:44:05.925Z,79762.06
2023-03-26T04:45:47.206Z,79767.25
2023-03-26T04:47:28.475Z,79754.16
2023-03-26T04:49:09.790Z,79740.66
2023-03-26T04:50:51.046Z,79748.91
2023-03-26T04:52:32.312Z,79744.44
2023-03-26T04:54:13.687Z,79738.34
2023-03-26T04:55:55.145Z,79732.72
2023-03-26T04:57:36.585Z,79722.94
2023-03-26T04:59:17.930Z,79717.88
2023-03-26T05:00:59.228Z,79720.78
2023-03-26T05:02:51.278Z,79714.50
2023-03-26T05:04:32.643Z,79710.72
2023-03-26T05:06:13.985Z,79719.31
2023-03-26T05:07:55.248Z,79718.84
2023-03-26T05:09:36.516Z,79725.75
2023-03-26T05:11:17.814Z,79728.63
2023-03-26T05:12:59.060Z,79720.31
2023-03-26T05:14:40.334Z,79715.19
2023-03-26T05:16:21.665Z,79710.25
2023-03-26T05:18:03.043Z,79718.03
2023-03-26T05:19:44.386Z,79728.66
2023-03-26T05:21:25.670Z,79728.81
2023-03-26T05:23:07.014Z,79730.44
2023-03-26T05:24:48.303Z,79726.78
2023-03-26T05:26:29.579Z,79718.94
2023-03-26T05:28:10.929Z,79724.56
2023-03-26T05:29:52.248Z,79729.69
2023-03-26T05:31:33.535Z,79727.47
2023-03-26T05:33:15.000Z,79728.47
2023-03-26T05:34:56.398Z,79735.22
2023-03-26T05:36:37.700Z,79741.50
2023-03-26T05:38:19.000Z,79744.47
2023-03-26T05:40:00.306Z,79731.50
2023-03-26T05:41:41.596Z,79727.81
2023-03-26T05:43:22.890Z,79724.38
2023-03-26T05:45:04.218Z,79728.09
2023-03-26T05:46:45.502Z,79721.66
2023-03-26T05:48:26.781Z,79704.22
2023-03-26T05:50:08.083Z,79713.69
2023-03-26T05:51:49.633Z,79712.13
2023-03-26T05:53:30.979Z,79719.22
2023-03-26T05:55:12.302Z,79719.25
2023-03-26T05:56:53.643Z,79726.16
2023-03-26T05:58:34.933Z,79751.59
2023-03-26T06:00:16.218Z,79767.50
2023-03-26T06:01:57.532Z,79768.59
2023-03-26T06:03:39.010Z,79768.44
2023-03-26T06:05:20.473Z,79780.94
2023-03-26T06:07:01.770Z,79780.75
2023-03-26T06:08:43.036Z,79794.94
2023-03-26T06:10:24.349Z,79799.03
2023-03-26T06:12:05.657Z,79802.22
2023-03-26T06:13:46.976Z,79800.63
2023-03-26T06:15:28.313Z,79803.41
2023-03-26T06:17:09.882Z,79805.91
2023-03-26T06:18:51.251Z,79810.53
2023-03-26T06:20:38.072Z,79806.19
2023-03-26T06:22:19.393Z,79802.16
2023-03-26T06:24:00.681Z,79806.19
2023-03-26T06:25:43.161Z,79798.81
2023-03-26T06:27:24.476Z,79781.59
2023-03-26T06:29:05.845Z,79779.59
2023-03-26T06:30:47.118Z,79793.16
2023-03-26T06:32:28.434Z,79801.94
2023-03-26T06:34:09.734Z,79793.13
2023-03-26T06:35:51.113Z,79773.53
2023-03-26T06:37:32.450Z,79759.31
2023-03-26T06:39:13.795Z,79765.72
2023-03-26T06:40:55.564Z,79754.34
2023-03-26T06:43:09.090Z,79718.16
2023-03-26T06:44:38.216Z,79706.50
2023-03-26T06:46:19.546Z,79692.13
2023-03-26T06:48:00.932Z,79682.91
2023-03-26T06:49:44.231Z,79663.78
2023-03-26T06:51:26.576Z,79637.41
2023-03-26T06:53:07.876Z,79631.34
2023-03-26T06:54:49.235Z,79620.09
2023-03-26T06:56:30.592Z,79611.75
2023-03-26T06:58:11.883Z,79610.31
2023-03-26T06:59:53.190Z,79594.09
2023-03-26T07:01:34.541Z,79588.59
2023-03-26T07:03:15.876Z,79595.94
2023-03-26T07:04:57.160Z,79581.84
2023-03-26T07:06:38.464Z,79568.53
2023-03-26T07:08:19.904Z,79566.03
2023-03-26T07:10:01.235Z,79549.47
2023-03-26T07:11:42.639Z,79550.03
2023-03-26T07:13:23.943Z,79541.38
2023-03-26T07:15:05.247Z,79548.78
2023-03-26T07:16:46.608Z,79549.41
2023-03-26T07:18:27.900Z,79552.44
2023-03-26T07:20:09.232Z,79562.28
2023-03-26T07:21:50.562Z,79555.59
2023-03-26T07:23:31.857Z,79554.09
2023-03-26T07:25:13.198Z,79561.66
2023-03-26T07:26:54.513Z,79566.28
2023-03-26T07:28:35.790Z,79568.38
2023-03-26T07:30:17.153Z,79573.59
2023-03-26T07:31:58.520Z,79572.00
2023-03-26T07:33:39.832Z,79557.34
2023-03-26T07:35:21.201Z,79555.50
2023-03-26T07:37:02.698Z,79562.91
2023-03-26T07:38:44.004Z,79561.28
2023-03-26T07:40:25.322Z,79554.69
2023-03-26T07:42:06.668Z,79566.75
2023-03-26T07:43:47.965Z,79582.41
2023-03-26T07:45:29.387Z,79590.00
2023-03-26T07:47:10.779Z,79590.47
2023-03-26T07:48:52.110Z,79596.16
2023-03-26T07:50:33.548Z,79605.81
2023-03-26T07:52:14.862Z,79605.44
2023-03-26T07:53:56.262Z,79604.34
2023-03-26T07:55:37.550Z,79594.75
2023-03-26T07:57:18.884Z,79597.31
2023-03-26T07:59:00.295Z,79593.78
2023-03-26T08:00:41.597Z,79604.34
2023-03-26T08:02:22.933Z,79605.97
2023-03-26T08:04:26.346Z,79601.00
2023-03-26T08:06:27.821Z,79599.78
2023-03-26T08:08:29.140Z,79610.59
2023-03-26T08:10:30.429Z,79608.31
2023-03-26T08:12:31.688Z,79605.25
2023-03-26T08:14:32.960Z,79599.28
2023-03-26T08:16:34.216Z,79600.59
2023-03-26T08:18:35.492Z,79607.56
2023-03-26T08:20:16.895Z,79610.06
2023-03-26T08:22:18.167Z,79593.78
2023-03-26T08:24:19.441Z,79605.41
2023-03-26T08:26:20.706Z,79612.38
2023-03-26T08:28:02.347Z,79594.75
2023-03-26T08:30:03.644Z,79580.53
2023-03-26T08:32:04.887Z,79568.22
2023-03-26T08:34:06.137Z,79562.75
2023-03-26T08:36:07.433Z,79553.31
2023-03-26T08:38:08.727Z,79569.09
2023-03-26T08:40:09.960Z,79577.63
2023-03-26T08:42:11.218Z,79574.47
2023-03-26T08:44:12.501Z,79582.44
2023-03-26T08:46:13.793Z,79584.16
2023-03-26T08:48:15.094Z,79570.44
2023-03-26T08:50:16.606Z,79573.44
2023-03-26T08:51:57.938Z,79575.91
2023-03-26T08:53:39.248Z,79582.22
2023-03-26T08:55:20.550Z,79576.25
2023-03-26T08:57:01.864Z,79583.09
2023-03-26T08:58:43.205Z,79586.72
2023-03-26T09:00:24.536Z,79591.28
2023-03-26T09:02:05.891Z,79601.13
2023-03-26T09:03:47.255Z,79605.69
2023-03-26T09:05:29.442Z,79598.50
2023-03-26T09:07:11.279Z,79608.00
2023-03-26T09:08:54.152Z,79599.34
2023-03-26T09:10:36.316Z,79596.13
2023-03-26T09:12:18.427Z,79595.13
2023-03-26T09:14:00.312Z,79593.81
2023-03-26T09:15:42.583Z,79592.75
2023-03-26T09:17:24.532Z,79598.41
2023-03-26T09:19:06.501Z,79602.66
2023-03-26T09:20:48.046Z,79603.88
2023-03-26T09:22:29.778Z,79605.63
2023-03-26T09:24:11.174Z,79612.53
2023-03-26T09:25:52.876Z,79592.88
2023-03-26T09:27:34.924Z,79589.78
2023-03-26T09:29:17.000Z,79585.09
2023-03-26T09:30:58.352Z,79577.06
2023-03-26T09:32:39.912Z,79564.63
2023-03-26T09:34:21.695Z,79564.66
2023-03-26T09:36:03.463Z,79579.59
2023-03-26T09:37:57.429Z,79575.09
2023-03-26T09:39:40.132Z,79579.94
2023-03-26T09:41:21.397Z,79564.44
2023-03-26T09:43:02.719Z,79557.94
2023-03-26T09:44:44.046Z,79566.13
2023-03-26T09:46:25.327Z,79559.19
2023-03-26T09:48:06.633Z,79561.41
2023-03-26T09:49:47.959Z,79549.25
2023-03-26T09:51:29.228Z,79545.28
2023-03-26T09:53:10.500Z,79542.56
2023-03-26T09:54:51.802Z,79528.25
2023-03-26T09:56:33.155Z,79528.81
2023-03-26T09:58:14.461Z,79525.50
2023-03-26T09:59:55.848Z,79518.88
2023-03-26T10:01:37.203Z,79523.03
2023-03-26T10:03:18.623Z,79522.78
2023-03-26T10:04:59.990Z,79523.69
2023-03-26T10:06:42.036Z,79524.00
2023-03-26T10:08:23.330Z,79524.13
2023-03-26T10:10:04.633Z,79536.19
2023-03-26T10:11:45.959Z,79528.06
2023-03-26T10:13:27.253Z,79538.63
2023-03-26T10:15:08.616Z,79545.78
2023-03-26T10:16:50.005Z,79550.78
2023-03-26T10:18:31.336Z,79538.91
2023-03-26T10:20:12.602Z,79547.56
2023-03-26T10:21:53.916Z,79556.13
2023-03-26T10:23:35.233Z,79560.00
2023-03-26T10:25:16.577Z,79578.56
2023-03-26T10:27:09.979Z,79590.28
2023-03-26T10:28:54.752Z,79584.97
2023-03-26T10:30:36.096Z,79587.09
2023-03-26T10:32:17.408Z,79590.34
2023-03-26T10:33:58.748Z,79580.44
2023-03-26T10:35:40.109Z,79579.56
2023-03-26T10:37:21.495Z,79564.88
2023-03-26T10:39:02.842Z,79550.53
2023-03-26T10:40:44.157Z,79551.41
2023-03-26T10:42:25.455Z,79554.22
2023-03-26T10:44:08.735Z,79566.88
2023-03-26T10:45:50.456Z,79583.28
2023-03-26T10:47:31.785Z,79592.00
2023-03-26T10:49:13.117Z,79590.94
2023-03-26T10:50:54.797Z,79587.06
2023-03-26T10:52:36.402Z,79589.59
2023-03-26T10:54:17.676Z,79589.00
2023-03-26T10:55:58.947Z,79579.09
2023-03-26T10:57:40.236Z,79579.94
2023-03-26T10:59:21.517Z,79585.00
2023-03-26T11:01:05.534Z,79596.91
2023-03-26T11:02:47.519Z,79588.13
2023-03-26T11:04:28.830Z,79601.25
2023-03-26T11:06:10.267Z,79612.44
2023-03-26T11:07:51.658Z,79608.25
2023-03-26T11:09:32.934Z,79618.94
2023-03-26T11:11:14.245Z,79617.91
2023-03-26T11:12:55.591Z,79611.81
2023-03-26T11:14:36.884Z,79617.84
2023-03-26T11:16:18.203Z,79618.81
2023-03-26T11:17:59.546Z,79622.44
2023-03-26T11:19:40.877Z,79617.00
2023-03-26T11:21:22.197Z,79624.94
2023-03-26T11:23:03.538Z,79627.09
2023-03-26T11:24:44.832Z,79622.13
2023-03-26T11:26:26.126Z,79610.91
2023-03-26T11:28:07.436Z,79613.25
2023-03-26T11:29:48.730Z,79626.00
2023-03-26T11:31:30.054Z,79634.72
2023-03-26T11:33:11.430Z,79618.22
2023-03-26T11:34:52.694Z,79620.97
2023-03-26T11:36:33.990Z,79618.09
2023-03-26T11:38:15.278Z,79614.47
2023-03-26T11:39:56.857Z,79606.56
2023-03-26T11:41:38.164Z,79608.94
2023-03-26T11:43:19.570Z,79613.53
2023-03-26T11:45:00.844Z,79609.75
2023-03-26T11:46:42.227Z,79608.03
2023-03-26T11:48:23.636Z,79609.50
2023-03-26T11:50:04.998Z,79612.88
2023-03-26T11:51:46.302Z,79610.25
2023-03-26T11:53:27.595Z,79616.72
2023-03-26T11:55:08.878Z,79613.03
2023-03-26T11:57:05.709Z,79613.66
2023-03-26T11:58:47.945Z,79614.75
2023-03-26T12:00:29.267Z,79598.97
2023-03-26T12:02:10.556Z,79596.59
2023-03-26T12:03:51.866Z,79593.22
2023-03-26T12:05:33.161Z,79599.34
2023-03-26T12:07:14.464Z,79593.72
2023-03-26T12:08:55.788Z,79587.53
2023-03-26T12:10:37.149Z,79587.34
2023-03-26T12:12:18.557Z,79576.06
2023-03-26T12:13:59.877Z,79573.44
2023-03-26T12:15:41.152Z,79564.22
2023-03-26T12:17:22.472Z,79568.56
2023-03-26T12:19:12.804Z,79561.41
2023-03-26T12:20:54.268Z,79548.16
2023-03-26T12:22:35.632Z,79540.19
2023-03-26T12:24:16.919Z,79535.94
2023-03-26T12:25:58.174Z,79539.38
2023-03-26T12:27:39.452Z,79541.25
2023-03-26T12:29:20.867Z,79550.22
2023-03-26T12:31:02.140Z,79535.91
2023-03-26T12:32:46.742Z,79545.81
2023-03-26T12:34:28.342Z,79537.44
2023-03-26T12:36:09.665Z,79544.78
2023-03-26T12:37:50.989Z,79558.41
2023-03-26T12:40:07.726Z,79561.78
2023-03-26T12:43:51.567Z,79556.38
2023-03-26T12:44:51.580Z,79554.34
2023-03-26T12:45:37.031Z,79563.63
2023-03-26T12:48:01.144Z,79552.00
2023-03-26T12:49:19.749Z,79545.63
2023-03-26T12:51:01.096Z,79551.41
2023-03-26T12:52:42.406Z,79544.03
2023-03-26T12:54:23.776Z,79545.22
2023-03-26T12:56:05.216Z,79536.88
2023-03-26T12:57:46.501Z,79528.63
2023-03-26T12:59:27.791Z,79516.47
2023-03-26T13:01:09.177Z,79514.91
2023-03-26T13:02:50.550Z,79507.22
2023-03-26T13:04:31.934Z,79495.72
2023-03-26T13:06:13.303Z,79498.41
2023-03-26T13:07:54.629Z,79486.00
2023-03-26T13:09:35.967Z,79477.50
2023-03-26T13:11:17.346Z,79466.56
2023-03-26T13:12:58.800Z,79449.09
2023-03-26T13:14:40.096Z,79456.06
2023-03-26T13:16:21.483Z,79457.25
2023-03-26T13:18:02.847Z,79438.59
2023-03-26T13:19:44.151Z,79423.91
2023-03-26T13:21:25.552Z,79426.84
2023-03-26T13:23:06.840Z,79410.03
2023-03-26T13:24:48.101Z,79399.53
2023-03-26T13:26:29.514Z,79401.41
2023-03-26T13:28:10.808Z,79391.59
2023-03-26T13:29:52.089Z,79371.06
2023-03-26T13:31:33.413Z,79367.41
2023-03-26T13:33:14.720Z,79378.44
2023-03-26T13:34:56.077Z,79377.94
2023-03-26T13:36:37.529Z,79370.28
2023-03-26T13:38:18.856Z,79366.97
2023-03-26T13:40:00.286Z,79356.56
2023-03-26T13:41:41.680Z,79348.59
2023-03-26T13:43:23.057Z,79337.31
2023-03-26T13:45:04.817Z,79328.94
2023-03-26T13:46:47.438Z,79334.09
2023-03-26T13:48:28.730Z,79337.25
2023-03-26T13:50:10.078Z,79327.63
2023-03-26T13:51:51.408Z,79322.06
2023-03-26T13:53:32.732Z,79325.66
2023-03-26T13:55:13.993Z,79325.13
2023-03-26T13:56:55.377Z,79318.53
2023-03-26T13:58:36.757Z,79326.34
2023-03-26T14:00:18.074Z,79328.13
2023-03-26T14:01:59.393Z,79329.19
2023-03-26T14:03:40.749Z,79328.56
2023-03-26T14:05:22.066Z,79327.63
2023-03-26T14:07:03.339Z,79328.38
2023-03-26T14:08:44.648Z,79331.59
2023-03-26T14:10:25.950Z,79324.31
2023-03-26T14:12:07.252Z,79322.72
2023-03-26T14:14:02.953Z,79325.41
2023-03-26T14:15:44.248Z,79326.38
2023-03-26T14:17:25.642Z,79342.75
2023-03-26T14:19:06.956Z,79348.19
2023-03-26T14:20:48.252Z,79349.78
2023-03-26T14:22:29.553Z,79349.88
2023-03-26T14:24:10.839Z,79362.69
2023-03-26T14:25:52.086Z,79358.78
2023-03-26T14:27:33.414Z,79360.38
2023-03-26T14:29:14.729Z,79368.44
2023-03-26T14:30:56.312Z,79367.31
2023-03-26T14:32:38.054Z,79390.66
2023-03-26T14:34:19.380Z,79396.06
2023-03-26T14:36:00.729Z,79402.13
2023-03-26T14:37:42.096Z,79408.25
2023-03-26T14:39:23.462Z,79411.38
2023-03-26T14:41:04.783Z,79417.66
2023-03-26T14:42:46.078Z,79427.88
2023-03-26T14:44:27.421Z,79436.75
2023-03-26T14:46:08.723Z,79439.97
2023-03-26T14:47:50.284Z,79452.72
2023-03-26T14:49:31.704Z,79455.84
2023-03-26T14:51:12.982Z,79466.47
2023-03-26T14:53:00.834Z,79480.75
2023-03-26T14:54:42.933Z,79462.66
2023-03-26T14:56:24.266Z,79438.59
2023-03-26T14:58:05.596Z,79429.50
2023-03-26T14:59:46.894Z,79458.31
2023-03-26T15:01:28.249Z,79457.53
2023-03-26T15:03:09.709Z,79471.81
2023-03-26T15:04:51.066Z,79468.03
2023-03-26T15:06:32.418Z,79442.06
2023-03-26T15:08:13.780Z,79439.63
2023-03-26T15:09:55.163Z,79458.38
2023-03-26T15:11:36.498Z,79447.66
2023-03-26T15:13:17.800Z,79450.78
2023-03-26T15:14:59.084Z,79461.97
2023-03-26T15:16:40.432Z,79434.34
2023-03-26T15:18:21.748Z,79462.28
2023-03-26T15:20:03.017Z,79454.00
2023-03-26T15:21:44.741Z,79441.88
2023-03-26T15:23:26.045Z,79451.06
2023-03-26T15:25:07.483Z,79440.81
2023-03-26T15:26:49.128Z,79462.44
2023-03-26T15:28:30.716Z,79458.28
2023-03-26T15:30:12.038Z,79450.00
2023-03-26T15:31:53.495Z,79445.63
2023-03-26T15:33:34.799Z,79445.06
2023-03-26T15:35:16.120Z,79452.44
2023-03-26T15:36:57.433Z,79464.97
2023-03-26T15:38:38.753Z,79468.28
2023-03-26T15:40:20.165Z,79464.56
2023-03-26T15:42:01.459Z,79447.84
2023-03-26T15:43:42.835Z,79434.78
2023-03-26T15:45:24.134Z,79422.03
2023-03-26T15:47:05.434Z,79432.16
2023-03-26T15:48:47.927Z,79443.00
2023-03-26T15:50:29.242Z,79458.81
2023-03-26T15:52:10.570Z,79453.03
2023-03-26T15:53:51.927Z,79459.56
2023-03-26T15:55:33.311Z,79456.09
2023-03-26T15:57:14.623Z,79465.84
2023-03-26T15:58:55.958Z,79451.47
2023-03-26T16:00:37.283Z,79428.28
2023-03-26T16:02:18.575Z,79424.19
2023-03-26T16:03:59.871Z,79421.59
2023-03-26T16:05:41.224Z,79437.16
2023-03-26T16:07:22.549Z,79440.13
2023-03-26T16:09:03.847Z,79435.16
2023-03-26T16:10:45.117Z,79422.31
2023-03-26T16:12:26.465Z,79432.63
2023-03-26T16:14:07.741Z,79432.94
2023-03-26T16:15:49.060Z,79434.53
2023-03-26T16:17:30.439Z,79410.06
2023-03-26T16:19:11.761Z,79409.34
2023-03-26T16:20:56.061Z,79415.66
2023-03-26T16:22:42.973Z,79412.22
2023-03-26T16:24:25.186Z,79413.28
2023-03-26T16:26:06.487Z,79409.34
2023-03-26T16:27:47.773Z,79402.34
2023-03-26T16:29:29.109Z,79406.78
2023-03-26T16:31:35.022Z,79403.53
2023-03-26T16:33:11.740Z,79406.91
2023-03-26T16:34:53.048Z,79404.63
2023-03-26T16:36:34.394Z,79414.88
2023-03-26T16:38:15.873Z,79406.50
2023-03-26T16:39:57.325Z,79403.03
2023-03-26T16:41:38.630Z,79392.31
2023-03-26T16:43:19.915Z,79401.03
2023-03-26T16:45:01.171Z,79410.38
2023-03-26T16:46:42.476Z,79415.28
2023-03-26T16:48:24.349Z,79410.66
2023-03-26T16:50:09.023Z,79411.19
2023-03-26T16:51:50.688Z,79417.94
2023-03-26T16:53:31.972Z,79420.16
2023-03-26T16:55:13.270Z,79427.28
2023-03-26T16:56:54.615Z,79424.97
2023-03-26T16:58:36.015Z,79431.19
2023-03-26T17:00:17.336Z,79438.53
2023-03-26T17:01:58.727Z,79438.88
2023-03-26T17:03:40.101Z,79442.13
2023-03-26T17:05:21.418Z,79423.00
2023-03-26T17:07:02.713Z,79434.84
2023-03-26T17:08:44.006Z,79436.84
2023-03-26T17:10:25.283Z,79437.94
2023-03-26T17:12:06.588Z,79430.66
2023-03-26T17:13:47.872Z,79421.75
2023-03-26T17:15:29.153Z,79414.59
2023-03-26T17:17:10.459Z,79419.38
2023-03-26T17:18:51.753Z,79411.78
2023-03-26T17:20:33.118Z,79421.63
2023-03-26T17:22:14.524Z,79423.13
2023-03-26T17:23:55.804Z,79416.88
2023-03-26T17:25:37.138Z,79414.63
2023-03-26T17:27:18.427Z,79419.19
2023-03-26T17:28:59.851Z,79415.16
2023-03-26T17:30:41.451Z,79406.22
2023-03-26T17:32:22.860Z,79400.19
2023-03-26T17:34:04.172Z,79406.50
2023-03-26T17:35:45.513Z,79393.50
2023-03-26T17:37:26.821Z,79399.63
2023-03-26T17:39:08.094Z,79399.16
2023-03-26T17:40:52.234Z,79399.06
2023-03-26T17:42:33.552Z,79391.69
2023-03-26T17:44:14.976Z,79379.50
2023-03-26T17:46:03.220Z,79386.16
2023-03-26T17:47:45.604Z,79379.09
2023-03-26T17:49:26.915Z,79365.88
2023-03-26T17:51:08.258Z,79367.03
2023-03-26T17:52:49.612Z,79358.84
2023-03-26T17:54:30.953Z,79361.41
2023-03-26T17:56:12.238Z,79353.63
2023-03-26T17:57:53.540Z,79348.63
2023-03-26T17:59:35.303Z,79353.78
2023-03-26T18:01:17.696Z,79360.34
2023-03-26T18:02:59.090Z,79359.00
2023-03-26T18:04:40.497Z,79358.84
2023-03-26T18:06:21.852Z,79357.16
2023-03-26T18:08:03.171Z,79351.34
2023-03-26T18:09:44.692Z,79352.66
2023-03-26T18:11:25.982Z,79342.41
2023-03-26T18:13:07.299Z,79348.66
2023-03-26T18:14:48.648Z,79359.19
2023-03-26T18:16:29.971Z,79353.81
2023-03-26T18:18:11.316Z,79357.38
2023-03-26T18:19:52.648Z,79356.75
2023-03-26T18:21:33.994Z,79363.31
2023-03-26T18:23:15.311Z,79377.44
2023-03-26T18:24:56.606Z,79378.22
2023-03-26T18:26:38.211Z,79377.19
2023-03-26T18:28:20.091Z,79370.34
2023-03-26T18:30:03.155Z,79362.97
2023-03-26T18:31:44.732Z,79368.81
2023-03-26T18:33:26.022Z,79378.50
2023-03-26T18:35:07.317Z,79369.72
2023-03-26T18:36:48.577Z,79379.38
2023-03-26T18:38:35.427Z,79376.75
2023-03-26T18:40:19.749Z,79375.69
2023-03-26T18:42:01.060Z,79370.13
2023-03-26T18:43:44.299Z,79359.88
2023-03-26T18:45:26.090Z,79358.09
2023-03-26T18:47:07.404Z,79361.53
2023-03-26T18:48:48.751Z,79366.84
2023-03-26T18:50:30.158Z,79364.00
2023-03-26T18:52:11.476Z,79354.28
2023-03-26T18:53:52.872Z,79363.50
2023-03-26T18:55:34.211Z,79353.25
2023-03-26T18:57:15.688Z,79359.81
2023-03-26T18:58:57.746Z,79360.75
2023-03-26T19:00:39.076Z,79357.47
2023-03-26T19:02:20.416Z,79363.94
2023-03-26T19:04:01.742Z,79363.06
2023-03-26T19:05:43.073Z,79353.88
2023-03-26T19:07:24.364Z,79342.13
2023-03-26T19:09:07.778Z,79345.22
2023-03-26T19:10:55.223Z,79348.22
2023-03-26T19:12:36.682Z,79353.66
2023-03-26T19:14:17.928Z,79353.38
2023-03-26T19:15:59.220Z,79349.72
2023-03-26T19:17:40.620Z,79347.44
2023-03-26T19:19:21.989Z,79343.41
2023-03-26T19:21:03.348Z,79335.34
2023-03-26T19:22:44.658Z,79343.38
2023-03-26T19:24:25.964Z,79343.56
2023-03-26T19:26:07.281Z,79343.72
2023-03-26T19:27:48.611Z,79342.31
2023-03-26T19:29:29.937Z,79334.16
2023-03-26T19:31:11.445Z,79337.97
2023-03-26T19:32:52.884Z,79337.78
2023-03-26T19:34:34.314Z,79331.94
2023-03-26T19:36:15.673Z,79333.25
2023-03-26T19:37:56.959Z,79329.41
2023-03-26T19:39:38.253Z,79335.72
2023-03-26T19:41:19.600Z,79322.03
2023-03-26T19:43:01.921Z,79332.97
2023-03-26T19:44:43.954Z,79328.00
2023-03-26T19:46:25.387Z,79332.28
2023-03-26T19:48:14.214Z,79336.06
2023-03-26T19:49:56.503Z,79331.31
2023-03-26T19:51:37.797Z,79332.59
2023-03-26T19:53:19.133Z,79327.69
2023-03-26T19:55:00.561Z,79335.38
2023-03-26T19:56:42.228Z,79338.06
2023-03-26T19:58:23.623Z,79336.88
2023-03-26T20:00:04.953Z,79339.94
2023-03-26T20:01:46.298Z,79337.47
2023-03-26T20:03:27.718Z,79327.47